Time;durP1;ratioP1;P1;durP2;ratioP2;P2;SDS_P1;SDS_P2;PMS_P1;PMS_P2;Temp;Humidity;BMP_temperature;BMP_pressure;BME280_temperature;BME280_humidity;BME280_pressure;Samples;Min_cycle;Max_cycle;Signal;HPM_P1;HPM_P2
2023/09/30 00:01:40;;;;;;;13.43;6.47;;;;;;;;;;4827091;29;20223;-81
2023/09/30 00:04:27;;;;;;;12.30;6.68;;;;;;;;;;4811844;29;20046;-81
2023/09/30 00:07:12;;;;;;;13.88;7.28;;;;;;;;;;4818547;29;20041;-81
2023/09/30 00:09:58;;;;;;;10.65;6.60;;;;;;;;;;4812712;29;20053;-81
2023/09/30 00:12:45;;;;;;;12.10;6.53;;;;;;;;;;4825718;29;20054;-80
2023/09/30 00:15:30;;;;;;;12.90;5.40;;;;;;;;;;4826754;29;20398;-80
2023/09/30 00:18:15;;;;;;;15.07;4.57;;;;;;;;;;4818004;29;20050;-80
2023/09/30 00:21:00;;;;;;;10.13;4.35;;;;;;;;;;4820228;29;20062;-82
2023/09/30 00:23:46;;;;;;;12.68;4.47;;;;;;;;;;4828040;29;20402;-80
2023/09/30 00:26:32;;;;;;;8.25;3.78;;;;;;;;;;4819640;29;20049;-81
2023/09/30 00:29:17;;;;;;;8.13;4.28;;;;;;;;;;4826282;29;20053;-80
2023/09/30 00:32:03;;;;;;;6.93;4.25;;;;;;;;;;4826984;29;20053;-83
2023/09/30 00:34:51;;;;;;;7.93;3.95;;;;;;;;;;4825299;29;20057;-80
2023/09/30 00:37:41;;;;;;;7.05;3.70;;;;;;;;;;4817991;29;20486;-82
2023/09/30 00:40:25;;;;;;;8.25;3.80;;;;;;;;;;4824938;29;20050;-81
2023/09/30 00:43:18;;;;;;;11.38;3.58;;;;;;;;;;4818401;29;20054;-81
2023/09/30 00:46:27;;;;;;;5.75;3.40;;;;;;;;;;4817807;29;20054;-81
2023/09/30 00:49:14;;;;;;;6.93;3.47;;;;;;;;;;4818484;29;20050;-79
2023/09/30 00:51:59;;;;;;;5.82;3.65;;;;;;;;;;4828398;29;20050;-81
2023/09/30 00:54:46;;;;;;;6.10;3.33;;;;;;;;;;4827618;29;20472;-80
2023/09/30 00:57:31;;;;;;;6.28;3.65;;;;;;;;;;4826913;29;20061;-80
2023/09/30 01:00:17;;;;;;;7.22;3.45;;;;;;;;;;4818220;29;20049;-82
2023/09/30 01:03:03;;;;;;;8.85;3.72;;;;;;;;;;4826314;29;20374;-80
2023/09/30 01:05:49;;;;;;;9.50;4.18;;;;;;;;;;4825853;29;20054;-82
2023/09/30 01:08:34;;;;;;;11.75;4.35;;;;;;;;;;4817180;29;20454;-80
2023/09/30 01:11:21;;;;;;;8.82;4.10;;;;;;;;;;4824632;29;20054;-81
2023/09/30 01:14:24;;;;;;;16.92;4.28;;;;;;;;;;4811789;29;20045;-81
2023/09/30 01:17:09;;;;;;;7.28;3.92;;;;;;;;;;4825897;29;20402;-81
2023/09/30 01:19:57;;;;;;;10.57;3.70;;;;;;;;;;4817908;29;20045;-81
2023/09/30 01:22:45;;;;;;;8.88;3.30;;;;;;;;;;4824986;29;20062;-81
2023/09/30 01:25:30;;;;;;;7.07;3.67;;;;;;;;;;4823662;29;20402;-80
2023/09/30 01:28:16;;;;;;;10.38;4.50;;;;;;;;;;4824724;29;20400;-80
2023/09/30 01:31:02;;;;;;;12.18;3.83;;;;;;;;;;4825324;29;20057;-80
2023/09/30 01:33:48;;;;;;;13.98;6.18;;;;;;;;;;4824987;29;20046;-81
2023/09/30 01:36:33;;;;;;;11.02;5.65;;;;;;;;;;4824624;29;20054;-82
2023/09/30 01:39:18;;;;;;;17.88;8.50;;;;;;;;;;4825711;29;20462;-80
2023/09/30 01:42:04;;;;;;;16.35;8.75;;;;;;;;;;4818111;29;20046;-79
2023/09/30 01:44:52;;;;;;;15.27;6.65;;;;;;;;;;4827537;29;20054;-79
2023/09/30 01:47:37;;;;;;;10.02;5.10;;;;;;;;;;4818124;29;20406;-81
2023/09/30 01:50:22;;;;;;;10.07;5.70;;;;;;;;;;4825465;29;20394;-81
2023/09/30 01:53:09;;;;;;;14.88;5.97;;;;;;;;;;4824473;29;20062;-81
2023/09/30 01:55:54;;;;;;;12.90;5.97;;;;;;;;;;4824706;29;20053;-83
2023/09/30 01:58:40;;;;;;;11.10;6.53;;;;;;;;;;4816076;29;20459;-82
2023/09/30 02:01:26;;;;;;;21.92;7.93;;;;;;;;;;4815616;29;20482;-82
2023/09/30 02:04:12;;;;;;;21.83;11.57;;;;;;;;;;4810393;29;20493;-81
2023/09/30 02:06:57;;;;;;;25.65;12.75;;;;;;;;;;4824011;29;20410;-82
2023/09/30 02:09:44;;;;;;;21.25;11.77;;;;;;;;;;4823985;29;20050;-82
2023/09/30 02:12:30;;;;;;;19.65;10.80;;;;;;;;;;4823114;29;20045;-81
2023/09/30 02:15:16;;;;;;;17.48;9.50;;;;;;;;;;4817129;29;20050;-81
2023/09/30 02:18:01;;;;;;;17.05;8.95;;;;;;;;;;4824100;29;20471;-81
2023/09/30 02:20:46;;;;;;;20.83;9.02;;;;;;;;;;4817304;29;20054;-81
2023/09/30 02:23:32;;;;;;;17.85;6.85;;;;;;;;;;4824124;29;20062;-81
2023/09/30 02:26:17;;;;;;;11.85;6.45;;;;;;;;;;4823088;29;20050;-81
2023/09/30 02:29:03;;;;;;;13.18;6.78;;;;;;;;;;4816492;29;20389;-83
2023/09/30 02:31:48;;;;;;;24.95;7.47;;;;;;;;;;4816037;29;20402;-82
2023/09/30 02:34:35;;;;;;;18.75;7.30;;;;;;;;;;4810393;29;20058;-81
2023/09/30 02:37:20;;;;;;;24.67;7.57;;;;;;;;;;4823397;29;20054;-82
2023/09/30 02:40:10;;;;;;;25.73;8.35;;;;;;;;;;4822771;29;20462;-80
2023/09/30 02:42:56;;;;;;;19.13;7.72;;;;;;;;;;4823338;29;20050;-81
2023/09/30 02:45:44;;;;;;;21.23;7.47;;;;;;;;;;4823840;29;20402;-80
2023/09/30 02:48:29;;;;;;;10.88;5.40;;;;;;;;;;4826114;29;20049;-81
2023/09/30 02:51:15;;;;;;;9.07;4.38;;;;;;;;;;4826258;29;20454;-82
2023/09/30 02:54:00;;;;;;;9.00;5.07;;;;;;;;;;4829146;29;20050;-81
2023/09/30 02:56:46;;;;;;;12.98;4.88;;;;;;;;;;4824250;29;20413;-80
2023/09/30 02:59:32;;;;;;;13.52;4.40;;;;;;;;;;4824232;29;20485;-80
2023/09/30 03:02:18;;;;;;;7.25;4.15;;;;;;;;;;4827885;29;20410;-79
2023/09/30 03:05:03;;;;;;;7.47;4.13;;;;;;;;;;4810543;29;20057;-79
2023/09/30 03:07:50;;;;;;;9.63;4.05;;;;;;;;;;4825729;29;20046;-80
2023/09/30 03:10:40;;;;;;;6.63;4.38;;;;;;;;;;4816222;29;20042;-79
2023/09/30 03:13:26;;;;;;;7.20;4.40;;;;;;;;;;4823665;29;20470;-80
2023/09/30 03:16:12;;;;;;;7.90;4.00;;;;;;;;;;4823992;29;20410;-80
2023/09/30 03:18:58;;;;;;;6.55;4.25;;;;;;;;;;4823578;29;20049;-81
2023/09/30 03:21:43;;;;;;;8.85;3.78;;;;;;;;;;4823102;29;20049;-80
2023/09/30 03:24:28;;;;;;;6.68;4.00;;;;;;;;;;4809487;29;20054;-80
2023/09/30 03:27:15;;;;;;;10.90;3.92;;;;;;;;;;4823881;29;20042;-80
2023/09/30 03:30:01;;;;;;;8.25;4.60;;;;;;;;;;4822869;29;20046;-80
2023/09/30 03:32:46;;;;;;;13.15;4.60;;;;;;;;;;4809608;29;20053;-80
2023/09/30 03:35:32;;;;;;;5.57;3.88;;;;;;;;;;4822786;29;20046;-80
2023/09/30 03:38:18;;;;;;;7.13;4.47;;;;;;;;;;4821913;29;20390;-81
2023/09/30 03:41:03;;;;;;;12.20;4.57;;;;;;;;;;4815916;29;20398;-80
2023/09/30 03:43:49;;;;;;;11.98;4.05;;;;;;;;;;4810237;29;20053;-81
2023/09/30 03:46:35;;;;;;;10.75;4.40;;;;;;;;;;4823352;29;20042;-80
2023/09/30 03:49:21;;;;;;;6.68;4.00;;;;;;;;;;4822694;29;20046;-80
2023/09/30 03:52:06;;;;;;;7.10;3.83;;;;;;;;;;4823595;29;20042;-83
2023/09/30 03:54:53;;;;;;;7.65;3.92;;;;;;;;;;4822801;29;20474;-80
2023/09/30 03:57:39;;;;;;;9.20;4.20;;;;;;;;;;4822548;29;20418;-81
2023/09/30 04:00:24;;;;;;;11.40;4.53;;;;;;;;;;4823092;29;20058;-80
2023/09/30 04:03:10;;;;;;;9.10;4.38;;;;;;;;;;4821408;29;20406;-83
2023/09/30 04:05:54;;;;;;;8.82;4.53;;;;;;;;;;4823411;29;20054;-80
2023/09/30 04:08:40;;;;;;;9.63;4.18;;;;;;;;;;4814669;29;20058;-80
2023/09/30 04:11:26;;;;;;;8.75;4.63;;;;;;;;;;4821966;29;20462;-81
2023/09/30 04:14:11;;;;;;;10.18;4.32;;;;;;;;;;4822618;29;20062;-80
2023/09/30 04:16:58;;;;;;;11.20;4.13;;;;;;;;;;4812501;29;20469;-82
2023/09/30 04:19:43;;;;;;;14.73;4.88;;;;;;;;;;4811938;29;20054;-80
2023/09/30 04:22:31;;;;;;;7.45;4.13;;;;;;;;;;4818759;29;20062;-81
2023/09/30 04:25:16;;;;;;;8.82;4.05;;;;;;;;;;4825911;29;20054;-81
2023/09/30 04:28:02;;;;;;;9.07;4.18;;;;;;;;;;4827193;29;20049;-81
2023/09/30 04:30:49;;;;;;;12.88;5.72;;;;;;;;;;4828188;29;20042;-81
2023/09/30 04:33:35;;;;;;;11.80;4.85;;;;;;;;;;4827239;29;20459;-79
2023/09/30 04:36:22;;;;;;;9.65;4.60;;;;;;;;;;4826583;29;20046;-81
2023/09/30 04:39:08;;;;;;;10.40;4.70;;;;;;;;;;4826566;29;20045;-81
2023/09/30 04:41:54;;;;;;;9.63;5.03;;;;;;;;;;4825937;29;20470;-80
2023/09/30 04:44:41;;;;;;;15.18;4.43;;;;;;;;;;4829513;29;20470;-82
2023/09/30 04:47:26;;;;;;;7.95;4.80;;;;;;;;;;4829241;29;20462;-80
2023/09/30 04:50:14;;;;;;;9.23;4.45;;;;;;;;;;4827275;29;20397;-80
2023/09/30 04:52:59;;;;;;;12.13;6.13;;;;;;;;;;4827049;29;20061;-79
2023/09/30 04:55:45;;;;;;;23.25;11.15;;;;;;;;;;4825872;29;20049;-80
2023/09/30 04:58:31;;;;;;;23.58;11.77;;;;;;;;;;4817484;29;20057;-80
2023/09/30 05:01:18;;;;;;;15.90;8.13;;;;;;;;;;4825305;29;20394;-81
2023/09/30 05:04:04;;;;;;;17.35;7.50;;;;;;;;;;4823593;29;20066;-81
2023/09/30 05:06:50;;;;;;;14.15;7.22;;;;;;;;;;4825199;29;20058;-81
2023/09/30 05:09:36;;;;;;;12.20;5.85;;;;;;;;;;4825544;29;20398;-80
2023/09/30 05:12:21;;;;;;;16.13;7.00;;;;;;;;;;4811490;29;20053;-81
2023/09/30 05:15:07;;;;;;;9.90;4.60;;;;;;;;;;4817687;29;20050;-80
2023/09/30 05:17:52;;;;;;;6.57;5.15;;;;;;;;;;4824739;29;20049;-81
2023/09/30 05:20:38;;;;;;;7.57;4.90;;;;;;;;;;4824266;29;20046;-80
2023/09/30 05:23:25;;;;;;;8.00;4.95;;;;;;;;;;4825761;29;20406;-80
2023/09/30 05:26:10;;;;;;;13.00;4.90;;;;;;;;;;4817125;29;20454;-81
2023/09/30 05:28:56;;;;;;;10.35;4.40;;;;;;;;;;4814352;29;20466;-79
2023/09/30 05:31:42;;;;;;;9.00;4.70;;;;;;;;;;4810245;29;20050;-81
2023/09/30 05:34:27;;;;;;;11.25;4.95;;;;;;;;;;4809302;29;20047;-82
2023/09/30 05:37:13;;;;;;;16.20;6.20;;;;;;;;;;4806672;29;20475;-81
2023/09/30 05:39:58;;;;;;;13.60;6.90;;;;;;;;;;4792908;29;20390;-80
2023/09/30 05:42:44;;;;;;;29.95;15.80;;;;;;;;;;4806204;29;20042;-80
2023/09/30 05:45:36;;;;;;;35.05;13.15;;;;;;;;;;4806761;29;20050;-81
2023/09/30 05:48:21;;;;;;;12.63;7.55;;;;;;;;;;4799138;29;20058;-81
2023/09/30 05:51:07;;;;;;;15.50;5.90;;;;;;;;;;4800260;29;20486;-81
2023/09/30 05:53:54;;;;;;;11.50;4.95;;;;;;;;;;4793886;29;20058;-79
2023/09/30 05:56:42;;;;;;;14.02;5.57;;;;;;;;;;4807323;29;20055;-80
2023/09/30 05:59:28;;;;;;;14.82;6.43;;;;;;;;;;4806476;29;20403;-78
2023/09/30 06:02:13;;;;;;;14.35;6.68;;;;;;;;;;4791580;29;20054;-80
2023/09/30 06:05:00;;;;;;;25.00;10.02;;;;;;;;;;4803111;29;20458;-80
2023/09/30 06:07:46;;;;;;;25.27;8.55;;;;;;;;;;4802106;29;20405;-80
2023/09/30 06:10:32;;;;;;;14.40;5.97;;;;;;;;;;4816634;29;20053;-79
2023/09/30 06:13:17;;;;;;;11.40;4.50;;;;;;;;;;4824840;29;20050;-80
2023/09/30 06:16:13;;;;;;;10.00;4.70;;;;;;;;;;4835102;29;20417;-86
2023/09/30 06:18:58;;;;;;;13.80;4.50;;;;;;;;;;4828490;29;20049;-80
2023/09/30 06:21:43;;;;;;;13.02;4.20;;;;;;;;;;4848114;29;20049;-80
2023/09/30 06:24:29;;;;;;;10.15;4.68;;;;;;;;;;4842176;29;20053;-81
2023/09/30 06:27:15;;;;;;;14.15;4.25;;;;;;;;;;4842504;29;20057;-82
2023/09/30 06:30:00;;;;;;;8.32;3.63;;;;;;;;;;4842773;29;20049;-81
2023/09/30 06:32:45;;;;;;;11.90;3.83;;;;;;;;;;4849299;29;20462;-79
2023/09/30 06:35:37;;;;;;;10.85;4.15;;;;;;;;;;4842420;29;20042;-81
2023/09/30 06:38:22;;;;;;;14.02;4.40;;;;;;;;;;4841509;29;20049;-81
2023/09/30 06:41:08;;;;;;;8.95;4.22;;;;;;;;;;4843650;29;20045;-80
2023/09/30 06:43:53;;;;;;;12.43;4.88;;;;;;;;;;4817425;29;20430;-83
2023/09/30 06:46:39;;;;;;;14.38;4.97;;;;;;;;;;4823838;29;20050;-80
2023/09/30 06:49:24;;;;;;;9.07;4.45;;;;;;;;;;4829963;29;20458;-80
2023/09/30 06:52:10;;;;;;;12.52;5.18;;;;;;;;;;4827941;29;20379;-81
2023/09/30 06:54:55;;;;;;;9.48;4.60;;;;;;;;;;4788148;29;20420;-80
2023/09/30 06:57:40;;;;;;;12.70;4.15;;;;;;;;;;4809307;29;20471;-78
2023/09/30 07:00:25;;;;;;;12.73;4.10;;;;;;;;;;4811179;29;20050;-79
2023/09/30 07:03:11;;;;;;;9.18;4.05;;;;;;;;;;4805640;29;20058;-81
2023/09/30 07:06:00;;;;;;;10.73;3.95;;;;;;;;;;4805554;29;20046;-79
2023/09/30 07:08:45;;;;;;;9.55;4.13;;;;;;;;;;4804738;29;20050;-80
2023/09/30 07:11:33;;;;;;;13.68;4.22;;;;;;;;;;4806060;29;20046;-79
2023/09/30 07:14:20;;;;;;;10.52;3.80;;;;;;;;;;4812934;29;20482;-78
2023/09/30 07:17:30;;;;;;;13.38;5.38;;;;;;;;;;4812276;29;20049;-81
2023/09/30 07:20:16;;;;;;;11.38;6.18;;;;;;;;;;4821852;29;20409;-80
2023/09/30 07:23:05;;;;;;;84.25;64.90;;;;;;;;;;4827405;29;20467;-82
2023/09/30 07:25:51;;;;;;;8.98;4.20;;;;;;;;;;4807406;29;20046;-79
2023/09/30 07:28:36;;;;;;;10.50;5.60;;;;;;;;;;4822402;29;20050;-82
2023/09/30 07:31:23;;;;;;;21.27;10.77;;;;;;;;;;4816698;29;20371;-81
2023/09/30 07:34:08;;;;;;;148.45;93.57;;;;;;;;;;4811083;29;20043;-82
2023/09/30 07:36:55;;;;;;;87.03;62.60;;;;;;;;;;4820303;29;20054;-81
2023/09/30 07:39:40;;;;;;;134.50;93.22;;;;;;;;;;4822553;29;20406;-82
2023/09/30 07:42:26;;;;;;;16.05;10.52;;;;;;;;;;4822606;29;20463;-81
2023/09/30 07:45:16;;;;;;;10.40;4.10;;;;;;;;;;4838660;29;20397;-78
2023/09/30 07:48:04;;;;;;;7.25;4.45;;;;;;;;;;4840709;29;20053;-80
2023/09/30 07:50:50;;;;;;;9.93;3.78;;;;;;;;;;4843244;29;20049;-81
2023/09/30 07:53:35;;;;;;;6.47;3.47;;;;;;;;;;4822118;29;20051;-80
2023/09/30 07:56:21;;;;;;;13.55;4.10;;;;;;;;;;4810974;29;20050;-82
2023/09/30 07:59:07;;;;;;;10.93;4.00;;;;;;;;;;4809653;29;20463;-82
2023/09/30 08:01:55;;;;;;;15.13;5.82;;;;;;;;;;4819414;29;20062;-80
2023/09/30 08:04:40;;;;;;;12.10;6.18;;;;;;;;;;4814885;29;20050;-82
2023/09/30 08:07:27;;;;;;;9.35;4.45;;;;;;;;;;4807478;29;20054;-79
2023/09/30 08:10:13;;;;;;;11.63;4.85;;;;;;;;;;4807336;29;20395;-81
2023/09/30 08:13:02;;;;;;;12.30;4.97;;;;;;;;;;4815965;29;20463;-80
2023/09/30 08:15:50;;;;;;;10.95;4.25;;;;;;;;;;4829475;29;20474;-79
2023/09/30 08:18:36;;;;;;;13.18;4.60;;;;;;;;;;4825799;29;20057;-78
2023/09/30 08:21:21;;;;;;;10.80;4.80;;;;;;;;;;4829299;29;20046;-83
2023/09/30 08:24:08;;;;;;;11.70;4.95;;;;;;;;;;4814051;29;20054;-80
2023/09/30 08:26:55;;;;;;;13.70;4.85;;;;;;;;;;4812851;29;20402;-80
2023/09/30 08:29:40;;;;;;;11.20;4.38;;;;;;;;;;4814848;29;20046;-80
2023/09/30 08:32:25;;;;;;;11.32;4.47;;;;;;;;;;4816377;29;20046;-78
2023/09/30 08:35:12;;;;;;;10.65;5.47;;;;;;;;;;4823958;29;20410;-78
2023/09/30 08:37:58;;;;;;;11.77;4.82;;;;;;;;;;4834003;29;20448;-82
2023/09/30 08:40:45;;;;;;;13.50;5.05;;;;;;;;;;4832844;29;20058;-80
2023/09/30 08:43:31;;;;;;;13.25;5.10;;;;;;;;;;4832048;29;20402;-80
2023/09/30 08:46:17;;;;;;;10.07;4.07;;;;;;;;;;4839970;29;20046;-79
2023/09/30 08:49:05;;;;;;;12.02;4.63;;;;;;;;;;4825656;29;20057;-82
2023/09/30 08:51:51;;;;;;;14.52;4.72;;;;;;;;;;4825304;29;20049;-81
2023/09/30 08:54:36;;;;;;;11.65;4.85;;;;;;;;;;4810617;29;20454;-80
2023/09/30 08:57:22;;;;;;;14.18;4.50;;;;;;;;;;4801852;29;20050;-80
2023/09/30 09:00:11;;;;;;;16.30;4.72;;;;;;;;;;4806245;29;20410;-81
2023/09/30 09:02:56;;;;;;;9.52;4.57;;;;;;;;;;4821235;29;20054;-80
2023/09/30 09:05:41;;;;;;;13.73;4.72;;;;;;;;;;4825144;29;20050;-80
2023/09/30 09:08:27;;;;;;;15.18;4.32;;;;;;;;;;4823409;29;20054;-79
2023/09/30 09:11:14;;;;;;;13.10;4.70;;;;;;;;;;4824647;29;20629;-81
2023/09/30 09:14:00;;;;;;;13.38;4.65;;;;;;;;;;4821691;29;20054;-82
2023/09/30 09:16:54;;;;;;;12.93;4.63;;;;;;;;;;4818024;29;20047;-83
2023/09/30 09:19:39;;;;;;;12.43;5.40;;;;;;;;;;4810899;29;20054;-80
2023/09/30 09:22:37;;;;;;;14.43;5.10;;;;;;;;;;4822602;29;20050;-82
2023/09/30 09:25:23;;;;;;;13.13;4.80;;;;;;;;;;4823383;29;20050;-83
2023/09/30 09:28:09;;;;;;;11.40;4.90;;;;;;;;;;4810299;29;20046;-82
2023/09/30 09:30:54;;;;;;;38.25;16.58;;;;;;;;;;4824427;29;20050;-80
2023/09/30 09:33:39;;;;;;;11.65;4.45;;;;;;;;;;4816357;29;20046;-80
2023/09/30 09:36:43;;;;;;;16.48;7.00;;;;;;;;;;4816129;29;20054;-80
2023/09/30 09:39:32;;;;;;;13.00;5.00;;;;;;;;;;4817937;29;20072;-80
2023/09/30 09:42:31;;;;;;;13.27;4.20;;;;;;;;;;4809422;29;20058;-81
2023/09/30 09:45:17;;;;;;;11.18;4.50;;;;;;;;;;4802797;29;20046;-84
2023/09/30 09:48:04;;;;;;;12.75;4.15;;;;;;;;;;4807415;29;20054;-81
2023/09/30 09:50:51;;;;;;;15.55;4.45;;;;;;;;;;4807682;29;20038;-82
2023/09/30 09:53:39;;;;;;;14.15;5.20;;;;;;;;;;4809012;29;20455;-81
2023/09/30 09:56:25;;;;;;;9.77;4.72;;;;;;;;;;4807650;29;20394;-84
2023/09/30 09:59:14;;;;;;;12.38;4.05;;;;;;;;;;4798611;29;20058;-83
2023/09/30 10:02:00;;;;;;;20.25;4.47;;;;;;;;;;4806499;29;20050;-84
2023/09/30 10:04:46;;;;;;;12.75;4.50;;;;;;;;;;4805865;29;20427;-84
2023/09/30 10:07:37;;;;;;;16.10;5.40;;;;;;;;;;4805398;29;20058;-84
2023/09/30 10:10:24;;;;;;;11.70;5.00;;;;;;;;;;4805647;29;20459;-82
2023/09/30 10:13:48;;;;;;;8.45;3.85;;;;;;;;;;4805446;29;20046;-82
2023/09/30 10:16:36;;;;;;;9.75;4.20;;;;;;;;;;4806151;29;20058;-83
2023/09/30 10:19:22;;;;;;;8.95;4.60;;;;;;;;;;4805713;29;20459;-81
2023/09/30 10:22:19;;;;;;;9.00;3.97;;;;;;;;;;4806183;29;20042;-83
2023/09/30 10:25:39;;;;;;;9.38;4.30;;;;;;;;;;4785197;29;20407;-86
2023/09/30 10:28:54;;;;;;;6.45;3.97;;;;;;;;;;4784662;29;20418;-81
2023/09/30 10:32:05;;;;;;;7.55;3.67;;;;;;;;;;4788361;29;20054;-83
2023/09/30 10:34:52;;;;;;;10.63;3.90;;;;;;;;;;4803148;29;20463;-82
2023/09/30 10:37:38;;;;;;;7.30;3.67;;;;;;;;;;4791267;29;20459;-83
2023/09/30 10:40:28;;;;;;;11.25;3.80;;;;;;;;;;4787043;29;20054;-83
2023/09/30 10:43:33;;;;;;;12.43;3.70;;;;;;;;;;4786784;29;20058;-82
2023/09/30 10:46:28;;;;;;;9.00;4.70;;;;;;;;;;4806094;29;20467;-85
2023/09/30 10:49:32;;;;;;;7.25;3.38;;;;;;;;;;4790975;29;20498;-85
2023/09/30 10:52:25;;;;;;;9.13;3.78;;;;;;;;;;4784511;29;20478;-85
2023/09/30 10:55:11;;;;;;;13.45;4.15;;;;;;;;;;4783635;29;20042;-86
2023/09/30 10:57:57;;;;;;;9.13;4.30;;;;;;;;;;4785205;29;20447;-83
2023/09/30 11:00:55;;;;;;;8.98;3.35;;;;;;;;;;4784650;29;20398;-86
2023/09/30 11:03:41;;;;;;;19.88;3.55;;;;;;;;;;4787513;29;20051;-84
2023/09/30 11:06:26;;;;;;;8.07;3.47;;;;;;;;;;4800630;29;20055;-83
2023/09/30 11:09:20;;;;;;;7.80;3.70;;;;;;;;;;4794407;29;20403;-80
2023/09/30 11:12:13;;;;;;;9.02;3.70;;;;;;;;;;4788735;29;20403;-83
2023/09/30 11:15:02;;;;;;;;;;;;;;;;;;4789114;29;20403;-83
2023/09/30 11:17:48;;;;;;;9.30;3.17;;;;;;;;;;4786356;29;19921;-84
2023/09/30 11:20:34;;;;;;;7.78;3.50;;;;;;;;;;4786715;29;20047;-81
2023/09/30 11:23:19;;;;;;;10.38;3.35;;;;;;;;;;4785676;29;20066;-81
2023/09/30 11:26:05;;;;;;;7.05;3.30;;;;;;;;;;4785548;29;20051;-85
2023/09/30 11:28:50;;;;;;;6.60;3.60;;;;;;;;;;4786251;29;20042;-84
2023/09/30 11:31:43;;;;;;;9.65;3.47;;;;;;;;;;4790816;29;20043;-85
2023/09/30 11:34:34;;;;;;;10.15;3.80;;;;;;;;;;4792615;29;20062;-83
2023/09/30 11:37:19;;;;;;;9.45;3.90;;;;;;;;;;4786046;29;20039;-84
2023/09/30 11:40:14;;;;;;;13.52;4.30;;;;;;;;;;4786165;29;20055;-88
2023/09/30 11:43:14;;;;;;;7.60;3.55;;;;;;;;;;4806237;29;20058;-86
2023/09/30 11:46:08;;;;;;;8.68;3.58;;;;;;;;;;4803278;29;20054;-82
2023/09/30 11:48:59;;;;;;;10.10;3.72;;;;;;;;;;4804679;29;20050;-84
2023/09/30 11:51:47;;;;;;;13.88;3.58;;;;;;;;;;4804144;29;20407;-85
2023/09/30 11:54:39;;;;;;;6.63;3.47;;;;;;;;;;4803981;29;20050;-84
2023/09/30 11:57:24;;;;;;;10.38;3.70;;;;;;;;;;4809158;29;20054;-83
2023/09/30 12:00:13;;;;;;;12.25;4.05;;;;;;;;;;4804068;29;20486;-83
2023/09/30 12:02:58;;;;;;;8.05;3.80;;;;;;;;;;4802775;29;20051;-84
2023/09/30 12:05:44;;;;;;;10.27;3.78;;;;;;;;;;4802739;29;20046;-84
2023/09/30 12:08:29;;;;;;;7.28;3.58;;;;;;;;;;4809094;29;20402;-81
2023/09/30 12:11:15;;;;;;;8.43;3.75;;;;;;;;;;4804269;29;20047;-85
2023/09/30 12:14:00;;;;;;;10.65;3.80;;;;;;;;;;4805845;29;20050;-83
2023/09/30 12:16:47;;;;;;;8.88;3.80;;;;;;;;;;4813960;29;20058;-83
2023/09/30 12:19:32;;;;;;;6.35;3.60;;;;;;;;;;4813440;29;20510;-87
2023/09/30 12:22:18;;;;;;;7.43;3.13;;;;;;;;;;4812424;29;20050;-84
2023/09/30 12:25:03;;;;;;;8.20;3.40;;;;;;;;;;4807266;29;20050;-82
2023/09/30 12:27:49;;;;;;;7.63;3.80;;;;;;;;;;4808545;29;20403;-84
2023/09/30 12:30:34;;;;;;;6.97;3.40;;;;;;;;;;4813577;29;20047;-81
2023/09/30 12:33:20;;;;;;;6.68;3.22;;;;;;;;;;4809884;29;20050;-81
2023/09/30 12:36:05;;;;;;;7.45;3.47;;;;;;;;;;4804917;29;20046;-83
2023/09/30 12:38:50;;;;;;;12.13;3.65;;;;;;;;;;4813156;29;20463;-83
2023/09/30 12:41:36;;;;;;;8.18;4.13;;;;;;;;;;4811007;29;20462;-82
2023/09/30 12:44:22;;;;;;;6.75;3.55;;;;;;;;;;4806249;29;20379;-82
2023/09/30 12:47:07;;;;;;;7.68;4.00;;;;;;;;;;4805371;29;20047;-82
2023/09/30 12:49:54;;;;;;;11.98;3.75;;;;;;;;;;4806243;29;20459;-81
2023/09/30 12:52:40;;;;;;;13.90;4.47;;;;;;;;;;4806975;29;20047;-82
2023/09/30 12:55:26;;;;;;;14.82;4.40;;;;;;;;;;4811660;29;20058;-84
2023/09/30 12:58:12;;;;;;;14.80;4.07;;;;;;;;;;4805622;29;20046;-82
2023/09/30 13:00:57;;;;;;;10.75;4.30;;;;;;;;;;4807714;29;20058;-84
2023/09/30 13:03:46;;;;;;;12.73;3.25;;;;;;;;;;4819626;29;20054;-83
2023/09/30 13:06:35;;;;;;;6.72;3.80;;;;;;;;;;4825222;29;20413;-83
2023/09/30 13:09:20;;;;;;;8.98;3.58;;;;;;;;;;4810963;29;20378;-86
2023/09/30 13:12:06;;;;;;;15.25;8.45;;;;;;;;;;4817512;29;20053;-83
2023/09/30 13:14:53;;;;;;;11.75;4.43;;;;;;;;;;4817479;29;20045;-85
2023/09/30 13:17:39;;;;;;;6.22;3.47;;;;;;;;;;4824471;29;20054;-82
2023/09/30 13:20:25;;;;;;;16.05;12.40;;;;;;;;;;4824694;29;20054;-82
2023/09/30 13:23:10;;;;;;;147.63;120.57;;;;;;;;;;4825253;29;20046;-84
2023/09/30 13:25:56;;;;;;;429.65;384.13;;;;;;;;;;4817164;29;20058;-82
2023/09/30 13:28:41;;;;;;;109.95;77.18;;;;;;;;;;4824983;29;20050;-82
2023/09/30 13:31:26;;;;;;;14.18;5.43;;;;;;;;;;4824929;29;20054;-81
2023/09/30 13:34:12;;;;;;;10.45;3.85;;;;;;;;;;4811199;29;20042;-82
2023/09/30 13:36:58;;;;;;;10.80;4.32;;;;;;;;;;4824979;29;20038;-82
2023/09/30 13:39:43;;;;;;;7.50;4.75;;;;;;;;;;4811310;29;20455;-83
2023/09/30 13:42:29;;;;;;;8.88;3.80;;;;;;;;;;4824701;29;20054;-83
2023/09/30 13:45:16;;;;;;;6.93;3.95;;;;;;;;;;4826547;29;20398;-83
2023/09/30 13:48:03;;;;;;;12.88;6.53;;;;;;;;;;4825522;29;20478;-81
2023/09/30 13:50:48;;;;;;;9.10;4.72;;;;;;;;;;4825619;29;20409;-84
2023/09/30 13:53:34;;;;;;;8.50;3.78;;;;;;;;;;4823909;29;20054;-83
2023/09/30 13:56:19;;;;;;;7.30;3.35;;;;;;;;;;4816725;29;20446;-83
2023/09/30 13:59:05;;;;;;;6.63;4.18;;;;;;;;;;4816410;29;20054;-81
2023/09/30 14:01:51;;;;;;;9.38;3.70;;;;;;;;;;4823457;29;20049;-82
2023/09/30 14:04:36;;;;;;;11.98;3.80;;;;;;;;;;4810120;29;20058;-83
2023/09/30 14:07:21;;;;;;;9.60;3.72;;;;;;;;;;4824471;29;20045;-81
2023/09/30 14:10:10;;;;;;;8.27;4.18;;;;;;;;;;4815983;29;20045;-82
2023/09/30 14:12:55;;;;;;;5.30;3.20;;;;;;;;;;4810923;29;20057;-82
2023/09/30 14:15:41;;;;;;;13.90;7.95;;;;;;;;;;4823814;29;20050;-82
2023/09/30 14:18:27;;;;;;;12.40;7.35;;;;;;;;;;4810867;29;20050;-81
2023/09/30 14:21:12;;;;;;;11.52;4.90;;;;;;;;;;4824561;29;20401;-83
2023/09/30 14:23:58;;;;;;;13.50;4.85;;;;;;;;;;4824399;29;20057;-84
2023/09/30 14:26:44;;;;;;;8.75;4.70;;;;;;;;;;4811519;29;20058;-83
2023/09/30 14:29:30;;;;;;;13.18;5.03;;;;;;;;;;4816654;29;20050;-83
2023/09/30 14:32:15;;;;;;;11.32;4.50;;;;;;;;;;4811173;29;20072;-82
2023/09/30 14:35:01;;;;;;;8.82;4.60;;;;;;;;;;4823804;29;20057;-83
2023/09/30 14:37:46;;;;;;;12.20;5.13;;;;;;;;;;4803076;29;20504;-84
2023/09/30 14:40:36;;;;;;;14.20;5.32;;;;;;;;;;4823901;29;20046;-83
2023/09/30 14:43:22;;;;;;;17.92;5.88;;;;;;;;;;4822671;29;20046;-82
2023/09/30 14:46:10;;;;;;;9.55;5.30;;;;;;;;;;4823737;29;20049;-83
2023/09/30 14:48:55;;;;;;;17.92;6.13;;;;;;;;;;4815545;29;20050;-83
2023/09/30 14:51:41;;;;;;;17.95;6.18;;;;;;;;;;4810688;29;20501;-83
2023/09/30 14:54:26;;;;;;;11.98;6.13;;;;;;;;;;4817357;29;20426;-81
2023/09/30 14:57:13;;;;;;;16.77;10.20;;;;;;;;;;4816001;29;20050;-83
2023/09/30 14:59:59;;;;;;;17.55;7.25;;;;;;;;;;4815155;29;20054;-84
2023/09/30 15:02:47;;;;;;;24.77;7.07;;;;;;;;;;4801781;29;20062;-81
2023/09/30 15:05:33;;;;;;;16.65;5.93;;;;;;;;;;4815763;29;20057;-85
2023/09/30 15:08:18;;;;;;;21.70;7.30;;;;;;;;;;4824117;29;20046;-83
2023/09/30 15:11:04;;;;;;;28.13;9.55;;;;;;;;;;4808625;29;20053;-82
2023/09/30 15:13:50;;;;;;;25.73;11.40;;;;;;;;;;4815503;29;20427;-82
2023/09/30 15:16:36;;;;;;;25.02;9.32;;;;;;;;;;4809210;29;20057;-85
2023/09/30 15:19:21;;;;;;;24.10;10.00;;;;;;;;;;4821812;29;20050;-85
2023/09/30 15:22:07;;;;;;;23.50;8.80;;;;;;;;;;4820842;29;20045;-83
2023/09/30 15:24:53;;;;;;;21.80;8.50;;;;;;;;;;4808404;29;20046;-84
2023/09/30 15:27:38;;;;;;;21.55;9.15;;;;;;;;;;4823153;29;20451;-83
2023/09/30 15:30:24;;;;;;;19.10;9.20;;;;;;;;;;4814447;29;20402;-83
2023/09/30 15:33:09;;;;;;;17.63;8.73;;;;;;;;;;4822477;29;20046;-83
2023/09/30 15:35:55;;;;;;;19.83;8.77;;;;;;;;;;4823111;29;20049;-82
2023/09/30 15:38:41;;;;;;;20.13;8.65;;;;;;;;;;4822087;29;20050;-81
2023/09/30 15:41:26;;;;;;;17.83;8.30;;;;;;;;;;4819754;29;20054;-81
2023/09/30 15:44:12;;;;;;;17.10;7.72;;;;;;;;;;4822128;29;20490;-81
2023/09/30 15:46:57;;;;;;;14.77;7.65;;;;;;;;;;4820946;29;20080;-83
2023/09/30 15:49:43;;;;;;;19.23;7.47;;;;;;;;;;4822694;29;20046;-83
2023/09/30 15:52:29;;;;;;;21.00;8.10;;;;;;;;;;4821872;29;20442;-82
2023/09/30 15:55:14;;;;;;;22.10;8.48;;;;;;;;;;4814431;29;20398;-85
2023/09/30 15:57:59;;;;;;;21.98;8.75;;;;;;;;;;4822818;29;20080;-82
2023/09/30 16:00:47;;;;;;;21.15;8.75;;;;;;;;;;4815320;29;20053;-82
2023/09/30 16:03:33;;;;;;;24.25;9.00;;;;;;;;;;4811215;29;20058;-84
2023/09/30 16:06:18;;;;;;;25.23;8.27;;;;;;;;;;4806378;29;20414;-82
2023/09/30 16:09:04;;;;;;;21.60;9.38;;;;;;;;;;4821824;29;20402;-83
2023/09/30 16:11:49;;;;;;;24.65;9.40;;;;;;;;;;4824690;29;20054;-83
2023/09/30 16:14:35;;;;;;;29.15;10.02;;;;;;;;;;4825127;29;20050;-82
2023/09/30 16:17:21;;;;;;;20.00;8.90;;;;;;;;;;4818559;29;20050;-82
2023/09/30 16:20:08;;;;;;;21.65;9.30;;;;;;;;;;4828815;29;20057;-82
2023/09/30 16:22:54;;;;;;;22.10;9.95;;;;;;;;;;4810079;29;20406;-82
2023/09/30 16:25:39;;;;;;;29.48;10.90;;;;;;;;;;4808492;29;20402;-80
2023/09/30 16:28:26;;;;;;;24.52;13.55;;;;;;;;;;4808511;29;20471;-82
2023/09/30 16:31:11;;;;;;;27.92;13.50;;;;;;;;;;4801555;29;20424;-84